Time;durP1;ratioP1;P1;durP2;ratioP2;P2;SDS_P1;SDS_P2;PMS_P1;PMS_P2;Temp;Humidity;BMP_temperature;BMP_pressure;BME280_temperature;BME280_humidity;BME280_pressure;Samples;Min_cycle;Max_cycle;Signal;HPM_P1;HPM_P2
2022/11/30 00:00:45;;;;;;;28.63;9.05;;;;;;;-19.11;53.59;98849.00;6200087;28;20046;-67
2022/11/30 00:03:51;;;;;;;24.23;9.38;;;;;;;-19.07;53.37;98845.13;6200095;28;20065;-67
2022/11/30 00:06:56;;;;;;;26.95;8.55;;;;;;;-18.95;53.44;98855.28;6200035;28;20413;-68
2022/11/30 00:09:59;;;;;;;29.95;8.48;;;;;;;-18.92;53.25;98848.00;6199237;28;20429;-67
2022/11/30 00:13:00;;;;;;;25.73;9.45;;;;;;;-18.86;53.09;98861.03;6180344;28;20058;-68
2022/11/30 00:16:03;;;;;;;21.25;9.10;;;;;;;-18.87;53.29;98856.78;6198732;28;20050;-68
2022/11/30 00:19:10;;;;;;;29.30;10.13;;;;;;;-18.92;53.14;98845.47;6199762;28;20043;-68
2022/11/30 00:22:14;;;;;;;33.22;11.30;;;;;;;-18.93;53.87;98849.63;6199663;28;20042;-67
2022/11/30 00:25:15;;;;;;;43.00;11.52;;;;;;;-18.95;53.54;98845.25;6199272;28;20042;-67
2022/11/30 00:28:19;;;;;;;49.45;13.25;;;;;;;-19.04;53.81;98838.72;6199511;28;20050;-67
2022/11/30 00:31:21;;;;;;;55.05;18.08;;;;;;;-19.05;53.81;98834.47;6199529;28;20182;-66
2022/11/30 00:34:22;;;;;;;109.20;33.05;;;;;;;-19.10;53.82;98837.34;6198607;28;20113;-67
2022/11/30 00:37:26;;;;;;;94.90;30.75;;;;;;;-19.23;53.66;98832.97;6198421;28;20046;-67
2022/11/30 00:40:30;;;;;;;88.93;29.52;;;;;;;-19.26;53.77;98842.75;6199306;28;20077;-67
2022/11/30 00:43:32;;;;;;;73.30;22.15;;;;;;;-19.31;54.23;98844.00;6198995;28;20035;-67
2022/11/30 00:46:40;;;;;;;62.72;21.83;;;;;;;-19.40;54.05;98840.72;6198943;28;20046;-67
2022/11/30 00:49:41;;;;;;;65.93;18.83;;;;;;;-19.60;53.76;98829.06;6199044;28;20057;-67
2022/11/30 00:52:42;;;;;;;77.85;22.00;;;;;;;-19.50;54.37;98850.00;6198899;28;20034;-67
2022/11/30 00:55:47;;;;;;;84.85;24.95;;;;;;;-19.52;54.02;98851.50;6198750;28;20514;-67
2022/11/30 00:58:48;;;;;;;76.75;24.63;;;;;;;-19.55;54.54;98847.88;6198848;28;20077;-68
2022/11/30 01:01:52;;;;;;;75.30;24.58;;;;;;;-19.64;54.23;98837.97;6198001;28;20061;-67
2022/11/30 01:04:58;;;;;;;54.63;19.17;;;;;;;-19.62;54.10;98843.94;6197905;28;20060;-67
2022/11/30 01:08:04;;;;;;;66.70;22.23;;;;;;;-19.65;54.37;98843.75;6198101;28;20053;-67
2022/11/30 01:11:15;;;;;;;50.65;18.65;;;;;;;-19.64;54.42;98842.06;6198498;28;20045;-66
2022/11/30 01:14:17;;;;;;;59.75;19.25;;;;;;;-19.64;54.41;98844.56;6197166;28;20042;-66
2022/11/30 01:17:21;;;;;;;56.63;18.48;;;;;;;-19.68;54.56;98840.09;6198115;28;20684;-67
2022/11/30 01:20:23;;;;;;;49.50;16.15;;;;;;;-19.68;54.32;98846.00;6180787;28;20464;-68
2022/11/30 01:23:29;;;;;;;45.80;16.00;;;;;;;-19.70;54.75;98842.47;6197724;28;20417;-67
2022/11/30 01:26:33;;;;;;;34.53;12.38;;;;;;;-19.65;53.97;98841.22;6197574;28;20517;-67
2022/11/30 01:29:37;;;;;;;34.28;12.88;;;;;;;-19.64;54.05;98847.97;6198234;28;20047;-67
2022/11/30 01:32:39;;;;;;;31.30;12.57;;;;;;;-19.69;54.35;98834.22;6197478;28;20065;-67
2022/11/30 01:35:44;;;;;;;29.30;10.70;;;;;;;-19.66;54.23;98844.50;6197104;28;20521;-68
2022/11/30 01:38:51;;;;;;;29.70;11.20;;;;;;;-19.66;54.38;98847.00;6197005;28;20050;-68
2022/11/30 01:41:55;;;;;;;36.20;10.05;;;;;;;-19.68;54.49;98846.00;6197749;28;20096;-68
2022/11/30 01:45:00;;;;;;;29.38;10.70;;;;;;;-19.69;54.14;98845.88;6197770;28;20045;-67
2022/11/30 01:48:06;;;;;;;41.85;10.68;;;;;;;-19.68;53.89;98840.09;6197652;28;20052;-67
2022/11/30 01:51:08;;;;;;;26.33;9.23;;;;;;;-19.71;54.56;98826.56;6197233;28;20387;-67
2022/11/30 01:54:13;;;;;;;32.25;9.70;;;;;;;-19.65;54.33;98826.19;6196694;28;20454;-68
2022/11/30 01:57:25;;;;;;;33.63;11.52;;;;;;;-19.64;54.13;98825.44;6197387;28;20050;-67
2022/11/30 02:00:29;;;;;;;43.15;12.25;;;;;;;-19.66;54.50;98814.41;6197235;28;20038;-68
2022/11/30 02:04:05;;;;;;;34.80;12.57;;;;;;;-19.53;54.53;98832.22;6196304;28;20105;-67
2022/11/30 02:07:09;;;;;;;30.55;12.10;;;;;;;-19.52;54.29;98836.47;6179969;28;20058;-67
2022/11/30 02:10:18;;;;;;;46.88;15.80;;;;;;;-19.52;54.20;98838.09;6197054;28;20046;-67
2022/11/30 02:13:34;;;;;;;42.63;15.02;;;;;;;-19.49;54.42;98828.31;6196590;28;20073;-68
2022/11/30 02:17:06;;;;;;;27.95;11.75;;;;;;;-19.48;54.46;98825.03;6196984;28;20054;-67
2022/11/30 02:20:39;;;;;;;28.58;11.68;;;;;;;-19.47;54.08;98821.81;6187806;28;20054;-69
2022/11/30 02:23:43;;;;;;;28.25;13.32;;;;;;;-19.48;54.31;98815.88;6196387;28;20136;-69
2022/11/30 02:27:09;;;;;;;30.00;11.95;;;;;;;-19.49;54.58;98803.25;6197104;28;20046;-68
2022/11/30 02:30:15;;;;;;;30.67;9.73;;;;;;;-19.49;54.41;98811.63;6195999;28;20058;-67
2022/11/30 02:33:27;;;;;;;29.25;10.98;;;;;;;-19.50;54.35;98814.91;6195936;28;20042;-69
2022/11/30 02:36:32;;;;;;;28.08;13.55;;;;;;;-19.45;54.24;98819.41;6200198;28;20513;-68
2022/11/30 02:39:33;;;;;;;26.70;11.82;;;;;;;-19.42;54.56;98809.63;6183716;28;20042;-68
2022/11/30 02:42:36;;;;;;;;;;;;;;;-19.35;54.88;98817.78;6201962;28;20046;-68
2022/11/30 02:45:47;;;;;;;27.65;13.25;;;;;;;-19.34;54.25;98809.50;6201701;28;19921;-67
2022/11/30 02:48:59;;;;;;;35.83;11.70;;;;;;;-19.26;54.27;98817.66;6200828;28;20051;-68
2022/11/30 02:52:03;;;;;;;28.05;12.15;;;;;;;-19.22;54.54;98814.63;6201721;28;20414;-67
2022/11/30 02:55:14;;;;;;;29.02;9.77;;;;;;;-19.14;54.66;98808.59;6201682;28;20193;-68
2022/11/30 02:58:19;;;;;;;26.13;11.63;;;;;;;-19.11;54.73;98808.84;6201723;28;20452;-67
2022/11/30 03:01:23;;;;;;;19.75;12.82;;;;;;;-19.11;54.19;98803.84;6201410;28;20042;-67
2022/11/30 03:04:24;;;;;;;16.80;9.15;;;;;;;-19.04;54.42;98805.22;6200476;28;20050;-67
2022/11/30 03:07:28;;;;;;;15.82;8.52;;;;;;;-19.00;54.21;98806.34;6201237;28;20050;-68
2022/11/30 03:10:32;;;;;;;18.90;9.95;;;;;;;-18.90;54.54;98798.81;6199786;28;20140;-67
2022/11/30 03:13:34;;;;;;;21.83;10.48;;;;;;;-18.84;53.99;98809.34;6200446;28;20082;-67
2022/11/30 03:16:39;;;;;;;20.00;11.48;;;;;;;-18.79;54.48;98798.03;6200952;28;20058;-67
2022/11/30 03:19:40;;;;;;;22.73;11.20;;;;;;;-18.79;54.55;98790.50;6200036;28;20081;-67
2022/11/30 03:22:45;;;;;;;23.52;9.75;;;;;;;-18.77;54.39;98794.00;6200720;28;20129;-68
2022/11/30 03:25:46;;;;;;;25.98;10.10;;;;;;;-18.80;54.63;98791.25;6200396;28;20461;-67
2022/11/30 03:28:52;;;;;;;32.83;13.95;;;;;;;-18.80;55.10;98793.75;6200547;28;20548;-67
2022/11/30 03:31:55;;;;;;;34.33;13.20;;;;;;;-18.79;54.91;98798.03;6200271;28;20050;-67
2022/11/30 03:35:02;;;;;;;41.65;14.40;;;;;;;-18.80;55.28;98791.25;6200502;28;20046;-67
2022/11/30 03:38:07;;;;;;;53.05;19.17;;;;;;;-18.81;54.86;98792.00;6200634;28;20038;-67
2022/11/30 03:41:15;;;;;;;36.25;15.63;;;;;;;-18.82;55.22;98790.22;6199761;28;20540;-67
2022/11/30 03:44:18;;;;;;;38.78;13.52;;;;;;;-18.84;55.18;98782.59;6200202;28;20050;-68
2022/11/30 03:47:19;;;;;;;32.95;14.23;;;;;;;-18.84;55.32;98795.16;6199302;28;20046;-68
2022/11/30 03:50:26;;;;;;;41.30;14.27;;;;;;;-18.82;55.13;98795.25;6200279;28;20133;-67
2022/11/30 03:53:28;;;;;;;43.95;12.60;;;;;;;-18.84;55.68;98790.13;6199357;28;20050;-66
2022/11/30 03:56:29;;;;;;;40.13;13.57;;;;;;;-18.78;55.86;98799.78;6199531;28;20185;-67
2022/11/30 03:59:32;;;;;;;;;;;;;;;-18.73;55.89;98795.97;6199697;28;20557;-67
2022/11/30 04:02:34;;;;;;;75.82;33.22;;;;;;;-18.71;55.44;98796.06;6198731;28;19921;-67
2022/11/30 04:05:40;;;;;;;65.15;26.55;;;;;;;-18.68;55.64;98799.72;6199876;28;20050;-68
2022/11/30 04:08:41;;;;;;;53.25;19.02;;;;;;;-18.57;55.70;98811.50;6199493;28;20073;-67
2022/11/30 04:11:43;;;;;;;33.70;14.45;;;;;;;-18.60;55.98;98795.28;6198803;28;20061;-67
2022/11/30 04:14:44;;;;;;;54.47;19.00;;;;;;;-18.45;56.00;98805.66;6198911;28;20096;-67
2022/11/30 04:17:48;;;;;;;34.03;14.32;;;;;;;-18.62;55.79;98772.59;6199751;28;20088;-67
2022/11/30 04:20:54;;;;;;;48.00;16.33;;;;;;;-18.32;55.99;98793.31;6198837;28;20046;-68
2022/11/30 04:23:55;;;;;;;39.28;14.90;;;;;;;-18.21;55.89;98802.53;6198777;28;20046;-68
2022/11/30 04:26:58;;;;;;;31.02;13.05;;;;;;;-18.10;56.03;98810.03;6199009;28;20185;-68
2022/11/30 04:30:03;;;;;;;43.80;13.20;;;;;;;-17.99;56.04;98804.22;6199076;28;20054;-68
2022/11/30 04:33:07;;;;;;;33.40;13.18;;;;;;;-17.96;55.75;98805.31;6198401;28;20457;-68
2022/11/30 04:36:16;;;;;;;42.50;12.30;;;;;;;-17.82;55.87;98803.84;6198424;28;20050;-67
2022/11/30 04:39:20;;;;;;;38.55;13.98;;;;;;;-17.75;56.05;98798.47;6198908;28;20050;-68
2022/11/30 04:42:21;;;;;;;22.98;10.40;;;;;;;-17.60;55.96;98798.78;6198328;28;20053;-67
2022/11/30 04:45:26;;;;;;;38.47;11.60;;;;;;;-17.48;55.97;98791.28;6198975;28;20048;-67
2022/11/30 04:48:27;;;;;;;31.20;11.27;;;;;;;-17.32;55.91;98799.19;6197949;28;20058;-67
2022/11/30 04:51:31;;;;;;;33.22;10.70;;;;;;;-17.22;56.09;98795.72;6198791;28;20058;-68
2022/11/30 04:54:35;;;;;;;22.08;10.63;;;;;;;-17.12;55.85;98787.19;6198120;28;20539;-67
2022/11/30 04:57:36;;;;;;;27.13;9.38;;;;;;;-16.99;55.83;98784.81;6197482;28;20073;-67
2022/11/30 05:00:38;;;;;;;25.90;10.30;;;;;;;-16.87;56.01;98790.72;6197347;28;20061;-67
2022/11/30 05:03:39;;;;;;;27.50;8.38;;;;;;;-16.78;56.00;98790.53;6198231;28;20429;-68
2022/11/30 05:06:43;;;;;;;28.38;9.70;;;;;;;-16.64;55.79;98797.41;6197498;28;20058;-68
2022/11/30 05:09:47;;;;;;;30.77;8.77;;;;;;;-16.59;55.95;98796.06;6197549;28;20050;-69
2022/11/30 05:12:51;;;;;;;26.35;9.50;;;;;;;-16.42;55.74;98798.91;6197568;28;20061;-70
2022/11/30 05:15:58;;;;;;;36.35;11.18;;;;;;;-16.33;55.56;98791.97;6198510;28;20046;-68
2022/11/30 05:19:02;;;;;;;32.05;12.35;;;;;;;-16.20;55.70;98793.72;6198444;28;20050;-68
2022/11/30 05:22:03;;;;;;;34.05;12.27;;;;;;;-16.09;55.26;98798.75;6197545;28;20060;-68
2022/11/30 05:25:05;;;;;;;29.08;11.48;;;;;;;-15.96;55.14;98797.97;6197335;28;20050;-68
2022/11/30 05:28:06;;;;;;;29.88;11.50;;;;;;;-15.92;55.07;98787.31;6197159;28;20434;-68
2022/11/30 05:31:08;;;;;;;31.58;14.73;;;;;;;-15.81;55.16;98790.56;6197012;28;20141;-68
2022/11/30 05:34:12;;;;;;;41.30;17.58;;;;;;;-15.69;54.90;98795.56;6197790;28;20050;-69
2022/11/30 05:37:13;;;;;;;34.97;14.25;;;;;;;-15.61;54.77;98779.28;6197184;28;20069;-68
2022/11/30 05:40:14;;;;;;;42.25;15.15;;;;;;;-15.44;54.87;98785.44;6196902;28;20073;-68
2022/11/30 05:43:19;;;;;;;31.00;15.20;;;;;;;-15.41;54.83;98789.03;6196978;28;20074;-68
2022/11/30 05:46:23;;;;;;;35.00;15.05;;;;;;;-15.38;54.76;98768.19;6197630;28;20050;-68
2022/11/30 05:49:24;;;;;;;41.50;15.25;;;;;;;-15.15;54.75;98784.84;6196827;28;20046;-69
2022/11/30 05:52:28;;;;;;;39.28;14.35;;;;;;;-15.03;54.56;98778.09;6196739;28;20425;-69
2022/11/30 05:55:31;;;;;;;;;;;;;;;-14.79;54.75;98785.50;6197425;28;20441;-69
2022/11/30 05:58:32;;;;;;;35.42;15.57;;;;;;;-14.66;54.23;98788.03;6196369;28;19914;-69
2022/11/30 06:01:36;;;;;;;36.80;13.30;;;;;;;-14.52;53.94;98787.28;6197274;28;20042;-68
2022/11/30 06:04:37;;;;;;;34.50;14.88;;;;;;;-14.34;53.99;98789.16;6196607;28;20050;-70
2022/11/30 06:07:40;;;;;;;36.50;15.32;;;;;;;-14.15;54.20;98787.00;6196975;28;20034;-69
2022/11/30 06:10:44;;;;;;;56.70;18.98;;;;;;;-13.83;53.66;98785.59;6196166;28;20092;-70
2022/11/30 06:13:48;;;;;;;52.38;18.67;;;;;;;-13.49;53.19;98800.28;6196755;28;20045;-69
2022/11/30 06:16:49;;;;;;;80.35;21.08;;;;;;;-13.49;53.11;98769.88;6196271;28;20043;-69
2022/11/30 06:19:53;;;;;;;;;;;;;;;-13.06;53.71;98801.09;6197476;28;20050;-69
2022/11/30 06:22:54;;;;;;;57.42;18.25;;;;;;;-12.85;52.75;98796.38;6196038;28;19953;-70
2022/11/30 06:25:58;;;;;;;;;;;;;;;-12.61;52.63;98796.06;6197522;28;20042;-69
2022/11/30 06:29:01;;;;;;;70.65;18.67;;;;;;;-12.45;52.17;98791.94;6197110;28;19914;-69
2022/11/30 06:32:06;;;;;;;70.35;19.02;;;;;;;-12.28;52.06;98797.06;6196030;28;20050;-68
2022/11/30 06:35:11;;;;;;;92.50;23.25;;;;;;;-12.12;52.33;98794.56;6196969;28;20054;-67
2022/11/30 06:38:12;;;;;;;109.70;24.75;;;;;;;-11.98;52.39;98788.56;6196950;28;20042;-68
2022/11/30 06:41:14;;;;;;;92.07;23.00;;;;;;;-11.92;51.99;98797.31;6195736;28;20047;-68
2022/11/30 06:44:15;;;;;;;104.50;21.85;;;;;;;-11.80;52.18;98788.66;6196469;28;20058;-69
2022/11/30 06:47:17;;;;;;;69.35;14.85;;;;;;;-11.69;52.07;98791.78;6196096;28;20053;-68
2022/11/30 06:50:18;;;;;;;76.60;18.30;;;;;;;-11.58;52.15;98784.69;6196139;28;20089;-68
2022/11/30 06:53:22;;;;;;;87.15;19.92;;;;;;;-11.44;51.79;98778.66;6195403;28;20050;-68
2022/11/30 06:56:24;;;;;;;71.15;18.85;;;;;;;-11.26;51.52;98780.41;6195753;28;20049;-69
2022/11/30 06:59:28;;;;;;;70.95;18.77;;;;;;;-11.28;51.54;98764.22;6196007;28;20057;-68
2022/11/30 07:02:32;;;;;;;55.45;15.15;;;;;;;-11.03;51.66;98785.00;6196529;28;20132;-68
2022/11/30 07:05:39;;;;;;;55.83;13.90;;;;;;;-10.72;51.65;98784.00;6195932;28;20505;-69
2022/11/30 07:08:42;;;;;;;46.28;12.60;;;;;;;-7.92;49.29;98782.56;6196036;28;20050;-68
2022/11/30 07:11:47;;;;;;;46.17;13.25;;;;;;;-3.16;42.85;98777.66;6195659;28;20056;-68
2022/11/30 07:14:55;;;;;;;34.65;11.07;;;;;;;1.38;35.55;98776.69;6196590;28;20054;-68
2022/11/30 07:18:01;;;;;;;40.03;11.02;;;;;;;4.86;31.40;98766.38;6195465;28;20514;-68
2022/11/30 07:21:06;;;;;;;44.13;10.65;;;;;;;7.38;29.52;98760.47;6197989;28;20054;-68
2022/11/30 07:27:36;;;;;;;40.38;11.52;;;;;;;10.17;26.49;98766.00;6200834;28;20045;-68
2022/11/30 07:30:37;;;;;;;41.80;11.35;;;;;;;10.80;25.73;98753.34;6199828;28;20061;-67
2022/11/30 07:33:38;;;;;;;31.50;11.00;;;;;;;11.81;24.65;98751.31;6199578;28;20425;-69
2022/11/30 07:36:39;;;;;;;47.42;11.82;;;;;;;12.99;23.22;98752.50;6199897;28;20042;-70
2022/11/30 07:39:44;;;;;;;45.70;11.68;;;;;;;14.22;21.91;98738.78;6198940;28;20046;-69
2022/11/30 07:42:56;;;;;;;35.08;11.02;;;;;;;15.13;19.00;98742.94;6200708;28;20046;-67
2022/11/30 07:46:01;;;;;;;30.27;10.52;;;;;;;15.32;20.47;98736.66;6199536;28;20425;-68
2022/11/30 07:49:07;;;;;;;29.10;10.93;;;;;;;16.00;20.21;98733.78;6200325;28;20042;-69
2022/11/30 07:52:08;;;;;;;34.15;11.20;;;;;;;16.54;19.56;98729.69;6199580;28;20060;-68
2022/11/30 07:55:10;;;;;;;33.17;11.15;;;;;;;16.74;18.68;98736.47;6199763;28;20049;-69
2022/11/30 07:58:14;;;;;;;31.90;11.57;;;;;;;16.84;18.48;98726.16;6199321;28;20059;-69
2022/11/30 08:01:22;;;;;;;34.72;11.63;;;;;;;16.90;17.83;98731.13;6199902;28;20062;-69
2022/11/30 08:04:23;;;;;;;34.58;10.82;;;;;;;17.36;17.84;98722.94;6198982;28;20042;-69
2022/11/30 08:07:27;;;;;;;;;;;;;;;18.72;16.79;98726.44;6200540;28;20042;-69
2022/11/30 08:10:31;;;;;;;36.22;10.77;;;;;;;18.35;17.40;98734.28;6199745;28;19921;-69
2022/11/30 08:13:34;;;;;;;34.15;11.13;;;;;;;18.26;17.09;98718.03;6199068;28;20053;-69
2022/11/30 08:16:43;;;;;;;32.50;10.82;;;;;;;18.24;16.57;98723.47;6199477;28;20058;-69
2022/11/30 08:19:44;;;;;;;29.67;9.57;;;;;;;18.45;16.00;98733.66;6198398;28;20188;-70
2022/11/30 08:22:46;;;;;;;21.58;9.02;;;;;;;19.03;15.47;98727.03;6198793;28;20057;-68
2022/11/30 08:25:50;;;;;;;19.95;9.25;;;;;;;19.66;14.60;98723.41;6199011;28;20414;-70
2022/11/30 08:28:51;;;;;;;;;;;;;;;20.84;15.25;98719.09;6198950;28;20050;-69
2022/11/30 08:32:00;;;;;;;27.08;9.77;;;;;;;20.85;14.12;98708.25;6198128;28;19921;-69
2022/11/30 08:35:01;;;;;;;30.80;10.07;;;;;;;21.43;14.36;98713.56;6198957;28;20125;-69
2022/11/30 08:38:04;;;;;;;40.88;10.13;;;;;;;21.43;13.92;98707.31;6198634;28;20051;-68
2022/11/30 08:41:11;;;;;;;30.83;10.25;;;;;;;21.21;13.74;98710.84;6198164;28;20421;-68
2022/11/30 08:44:17;;;;;;;34.58;10.68;;;;;;;20.87;13.58;98704.63;6198999;28;20042;-68
2022/11/30 08:47:21;;;;;;;32.83;11.65;;;;;;;20.23;13.44;98695.16;6199119;28;20203;-68
2022/11/30 08:50:25;;;;;;;46.90;12.85;;;;;;;20.01;13.67;98695.91;6198747;28;20047;-69
2022/11/30 08:53:31;;;;;;;38.50;13.65;;;;;;;19.98;13.38;98690.81;6198907;28;20125;-68
2022/11/30 08:56:36;;;;;;;49.33;13.45;;;;;;;19.60;13.27;98697.13;6198341;28;20505;-68
2022/11/30 08:59:43;;;;;;;47.78;14.48;;;;;;;19.39;13.32;98690.66;6198798;28;20432;-68
2022/11/30 09:02:49;;;;;;;36.38;13.80;;;;;;;19.48;12.78;98692.69;6198460;28;20054;-68
2022/11/30 09:05:50;;;;;;;48.63;14.73;;;;;;;19.49;12.89;98689.91;6197863;28;20046;-68
2022/11/30 09:08:58;;;;;;;44.95;14.88;;;;;;;19.39;12.64;98693.34;6198469;28;20046;-68
2022/11/30 09:11:59;;;;;;;40.80;12.00;;;;;;;19.42;12.93;98693.09;6197691;28;20061;-69
2022/11/30 09:15:04;;;;;;;35.42;10.85;;;;;;;19.32;12.68;98692.09;6198297;28;20712;-69
2022/11/30 09:18:06;;;;;;;27.20;9.75;;;;;;;19.57;12.72;98681.34;6197408;28;20050;-68
2022/11/30 09:21:11;;;;;;;31.17;8.98;;;;;;;19.51;12.39;98685.31;6197329;28;20536;-69
2022/11/30 09:24:14;;;;;;;23.52;10.30;;;;;;;18.98;12.21;98659.78;6197738;28;20042;-69
2022/11/30 09:27:20;;;;;;;37.55;12.60;;;;;;;16.64;13.45;98692.78;6197816;28;20129;-70
2022/11/30 09:30:24;;;;;;;38.65;12.40;;;;;;;12.81;15.49;98676.69;6197865;28;20050;-69
2022/11/30 09:33:32;;;;;;;40.40;12.95;;;;;;;8.86;17.97;98660.56;6197893;28;20042;-69
2022/11/30 09:36:35;;;;;;;37.08;12.32;;;;;;;5.53;20.85;98655.84;6197147;28;20077;-68
2022/11/30 09:39:36;;;;;;;30.40;10.73;;;;;;;3.12;22.96;98661.19;6197046;28;20054;-69
2022/11/30 09:43:04;;;;;;;31.00;11.00;;;;;;;1.24;24.29;98654.75;6197532;28;20050;-69
2022/11/30 09:46:08;;;;;;;41.70;11.95;;;;;;;-0.28;26.42;98655.94;6197613;28;20141;-69
2022/11/30 09:49:29;;;;;;;51.53;12.43;;;;;;;-1.27;27.28;98648.16;6197548;28;20125;-68
2022/11/30 09:52:38;;;;;;;49.97;13.00;;;;;;;-2.04;28.01;98653.28;6197319;28;20046;-69
2022/11/30 09:55:42;;;;;;;51.65;15.13;;;;;;;-2.47;28.88;98656.91;6196996;28;20177;-69
2022/11/30 09:58:54;;;;;;;54.97;14.43;;;;;;;-2.75;29.32;98651.31;6197341;28;20058;-69
2022/11/30 10:02:00;;;;;;;52.10;13.45;;;;;;;-2.99;29.22;98651.78;6195134;28;20513;-69
2022/11/30 10:05:34;;;;;;;64.50;14.63;;;;;;;-3.11;29.58;98651.56;6197500;28;20050;-68
2022/11/30 10:09:00;;;;;;;51.22;13.32;;;;;;;-3.31;29.54;98643.50;6178978;28;20133;-69
2022/11/30 10:12:47;;;;;;;47.17;11.85;;;;;;;-3.47;29.59;98644.03;6196972;28;20050;-67
2022/11/30 10:16:07;;;;;;;33.10;10.05;;;;;;;-3.91;30.49;98644.88;6183280;28;20046;-68
2022/11/30 10:19:46;;;;;;;32.35;10.25;;;;;;;-4.35;30.81;98646.50;6148852;29;20051;-67
2022/11/30 10:23:28;;;;;;;39.10;10.65;;;;;;;-4.90;32.31;98645.19;6148891;28;20055;-68
2022/11/30 10:26:34;;;;;;;47.13;11.82;;;;;;;-5.42;32.40;98640.47;6148515;28;20062;-67
2022/11/30 10:29:39;;;;;;;39.85;10.63;;;;;;;-5.75;32.69;98642.97;6148627;28;20134;-67
2022/11/30 10:32:49;;;;;;;41.05;10.30;;;;;;;-6.14;33.47;98640.19;6148603;29;20142;-67
2022/11/30 10:36:08;;;;;;;29.63;9.85;;;;;;;-6.33;34.36;98649.03;6148955;29;20055;-67
2022/11/30 10:39:18;;;;;;;37.25;10.77;;;;;;;-6.58;34.12;98652.53;6148594;28;20051;-68
2022/11/30 10:42:51;;;;;;;35.65;11.82;;;;;;;-6.94;34.70;98653.06;6148474;28;20149;-67
2022/11/30 10:45:55;;;;;;;35.20;11.00;;;;;;;-7.46;34.48;98656.44;6148847;28;20419;-67
2022/11/30 10:49:13;;;;;;;36.63;9.57;;;;;;;-7.78;34.76;98656.19;6148788;29;20043;-68
2022/11/30 10:52:40;;;;;;;33.25;8.23;;;;;;;-8.13;35.92;98658.31;6148399;28;20609;-67
2022/11/30 10:55:50;;;;;;;18.23;6.43;;;;;;;-8.52;36.42;98655.19;6149963;28;20058;-67
2022/11/30 10:58:58;;;;;;;19.23;6.28;;;;;;;-8.79;36.77;98654.97;6153480;28;20047;-68
2022/11/30 11:02:31;;;;;;;17.05;6.25;;;;;;;-9.05;36.98;98657.34;6153336;28;20051;-67
2022/11/30 11:05:33;;;;;;;17.08;6.25;;;;;;;-9.28;36.86;98656.41;6149182;29;20187;-66
2022/11/30 11:08:34;;;;;;;39.05;11.02;;;;;;;-9.52;37.34;98648.56;6152641;28;20051;-68
2022/11/30 11:11:42;;;;;;;22.25;6.07;;;;;;;-9.64;37.35;98659.94;6153140;28;20047;-69
2022/11/30 11:14:44;;;;;;;20.83;6.25;;;;;;;-9.83;38.00;98655.72;6152193;28;20051;-67
2022/11/30 11:17:48;;;;;;;20.73;6.68;;;;;;;-10.00;38.16;98666.03;6182270;28;20050;-68
2022/11/30 11:20:59;;;;;;;21.92;6.25;;;;;;;-10.19;39.31;98655.81;6200794;28;20049;-67
2022/11/30 11:24:10;;;;;;;20.30;7.45;;;;;;;-10.34;39.75;98655.16;6200925;28;20502;-67
2022/11/30 11:27:26;;;;;;;25.08;9.98;;;;;;;-10.36;40.39;98672.03;6200801;28;20050;-67
2022/11/30 11:30:30;;;;;;;20.77;9.77;;;;;;;-10.64;39.47;98642.78;6200510;28;20133;-67
2022/11/30 11:33:31;;;;;;;18.60;8.60;;;;;;;-10.51;39.69;98672.19;6200299;28;21019;-68
2022/11/30 11:36:35;;;;;;;24.60;8.80;;;;;;;-10.56;39.72;98673.66;6199151;28;20053;-68
2022/11/30 11:39:38;;;;;;;29.02;8.90;;;;;;;-10.71;40.12;98673.81;6199698;28;20406;-67
2022/11/30 11:42:46;;;;;;;33.20;11.00;;;;;;;-10.87;41.26;98678.19;6200604;28;20053;-67
2022/11/30 11:45:54;;;;;;;35.17;11.82;;;;;;;-11.08;41.03;98662.75;6200439;28;20405;-67
2022/11/30 11:49:18;;;;;;;30.10;9.85;;;;;;;-11.24;41.45;98664.47;6199489;28;20687;-67
2022/11/30 11:52:21;;;;;;;29.80;9.60;;;;;;;-11.38;41.08;98666.31;6200257;28;20145;-67
2022/11/30 11:55:22;;;;;;;34.25;11.52;;;;;;;-11.48;41.31;98670.09;6199518;28;20513;-67
2022/11/30 11:58:44;;;;;;;51.25;16.02;;;;;;;-11.64;42.30;98673.50;6199364;28;20058;-66
2022/11/30 12:01:55;;;;;;;52.50;18.52;;;;;;;-11.79;42.73;98671.06;6199586;28;20050;-67
2022/11/30 12:05:35;;;;;;;61.97;20.38;;;;;;;-11.88;43.68;98668.09;6199780;28;20513;-67
2022/11/30 12:08:59;;;;;;;51.95;19.00;;;;;;;-11.99;43.72;98669.22;6194792;28;20521;-66
2022/11/30 12:12:01;;;;;;;44.55;16.70;;;;;;;-12.08;42.84;98678.88;6199269;28;20050;-67
2022/11/30 12:15:03;;;;;;;48.40;16.70;;;;;;;-12.15;43.16;98676.81;6199090;28;20049;-68
2022/11/30 12:18:48;;;;;;;48.10;15.43;;;;;;;-12.25;43.72;98683.94;6199476;28;20505;-67
2022/11/30 12:22:21;;;;;;;39.25;13.30;;;;;;;-12.39;44.02;98677.25;6145297;28;20064;-68
2022/11/30 12:25:29;;;;;;;47.63;17.67;;;;;;;-12.48;43.55;98672.56;6162772;28;20141;-67
2022/11/30 12:28:39;;;;;;;46.90;16.20;;;;;;;-12.55;44.17;98679.75;6198173;28;20505;-68
2022/11/30 12:31:58;;;;;;;50.25;16.73;;;;;;;-12.59;43.36;98680.38;6199078;28;20042;-68
2022/11/30 12:35:19;;;;;;;45.95;15.40;;;;;;;-12.69;44.69;98687.47;6199042;28;20047;-67
2022/11/30 12:38:29;;;;;;;43.60;13.63;;;;;;;-12.77;44.45;98691.22;6198539;28;20133;-68
2022/11/30 12:41:55;;;;;;;38.53;12.68;;;;;;;-12.78;44.55;98689.50;6198953;28;20053;-67
2022/11/30 12:45:21;;;;;;;27.38;10.10;;;;;;;-12.76;44.22;98685.41;6197781;28;20050;-68
2022/11/30 12:48:27;;;;;;;30.05;11.00;;;;;;;-12.83;44.65;98688.38;6198684;28;20054;-67
2022/11/30 12:51:33;;;;;;;;;;;;;;;-12.85;44.69;98687.41;6198492;28;20046;-67
2022/11/30 12:54:50;;;;;;;37.05;12.52;;;;;;;-12.94;44.90;98689.44;6197843;28;19922;-69
2022/11/30 12:58:30;;;;;;;46.13;14.60;;;;;;;-12.98;45.21;98682.47;6197781;28;20081;-67
2022/11/30 13:01:34;;;;;;;51.33;17.73;;;;;;;-13.13;44.76;98685.88;6168132;28;20050;-67
2022/11/30 13:04:54;;;;;;;61.22;20.60;;;;;;;-13.22;45.55;98680.25;6198404;28;20050;-67
2022/11/30 13:08:11;;;;;;;53.53;20.83;;;;;;;-13.21;45.58;98689.63;6198403;28;20042;-68
2022/11/30 13:11:24;;;;;;;37.95;14.93;;;;;;;-13.31;45.60;98684.84;6198225;28;20073;-67
2022/11/30 13:14:27;;;;;;;43.03;13.15;;;;;;;-13.40;45.43;98697.84;6197623;28;20509;-67
2022/11/30 13:17:31;;;;;;;45.95;15.32;;;;;;;-13.48;45.27;98694.00;6196473;28;20057;-67
2022/11/30 13:20:40;;;;;;;54.83;18.23;;;;;;;-13.51;46.36;98687.91;6197711;28;20129;-67
2022/11/30 13:24:32;;;;;;;59.00;21.45;;;;;;;-13.50;46.87;98679.50;6197474;28;20058;-68
2022/11/30 13:27:43;;;;;;;66.97;23.30;;;;;;;-13.59;46.86;98673.13;6144104;28;20094;-67
2022/11/30 13:30:49;;;;;;;77.15;28.73;;;;;;;-13.63;46.50;98683.00;6197660;28;20133;-67
2022/11/30 13:33:54;;;;;;;63.83;25.08;;;;;;;-13.71;46.24;98685.06;6180018;28;20413;-68
2022/11/30 13:37:36;;;;;;;68.82;25.38;;;;;;;-13.77;47.14;98689.78;6197539;28;20054;-67
2022/11/30 13:40:40;;;;;;;76.28;27.08;;;;;;;-13.91;46.48;98691.50;6075990;29;20048;-68
2022/11/30 13:43:46;;;;;;;67.00;24.77;;;;;;;-13.96;46.41;98697.94;6075694;29;20542;-66
2022/11/30 13:46:51;;;;;;;80.25;23.48;;;;;;;-14.06;46.45;98678.81;6197468;28;20034;-70
2022/11/30 13:49:58;;;;;;;61.88;22.27;;;;;;;-14.18;46.65;98685.66;6197316;28;20050;-68
2022/11/30 13:52:59;;;;;;;71.80;25.80;;;;;;;-14.20;46.75;98687.22;6196528;28;20661;-68
2022/11/30 13:56:16;;;;;;;68.15;20.83;;;;;;;-14.33;46.72;98680.53;6196938;28;20043;-69
2022/11/30 13:59:23;;;;;;;57.45;20.17;;;;;;;-14.38;46.88;98686.09;6197015;28;20063;-67
2022/11/30 14:02:31;;;;;;;67.78;21.73;;;;;;;-14.47;46.94;98692.31;6179597;28;20058;-68
2022/11/30 14:05:54;;;;;;;78.18;25.08;;;;;;;-14.55;47.16;98697.72;6196812;28;20050;-67
2022/11/30 14:09:01;;;;;;;72.18;24.73;;;;;;;-14.61;47.18;98692.28;6197122;28;20046;-67
2022/11/30 14:12:35;;;;;;;93.78;27.90;;;;;;;-14.68;47.78;98692.69;6195973;28;20050;-68
2022/11/30 14:15:42;;;;;;;95.20;31.35;;;;;;;-14.75;47.28;98704.06;6175858;28;20054;-68
2022/11/30 14:18:47;;;;;;;90.38;29.08;;;;;;;-14.91;47.17;98692.13;6195620;28;20505;-67
2022/11/30 14:21:50;;;;;;;65.38;27.08;;;;;;;-14.91;47.26;98697.19;6194984;28;20054;-67